sensor_id;sensor_type;location;lat;lon;timestamp;P1;durP1;ratioP1;P2;durP2;ratioP2
9264;SDS011;4669;49.594;10.958;2023-03-23T00:02:05;6.22;;;4.95;;
9264;SDS011;4669;49.594;10.958;2023-03-23T00:07:09;9.18;;;4.85;;
9264;SDS011;4669;49.594;10.958;2023-03-23T00:12:12;6.85;;;5.32;;
9264;SDS011;4669;49.594;10.958;2023-03-23T00:17:15;6.65;;;4.80;;
9264;SDS011;4669;49.594;10.958;2023-03-23T00:22:19;7.93;;;4.97;;
9264;SDS011;4669;49.594;10.958;2023-03-23T00:27:21;7.75;;;5.03;;
9264;SDS011;4669;49.594;10.958;2023-03-23T00:32:24;12.45;;;4.88;;
9264;SDS011;4669;49.594;10.958;2023-03-23T00:37:29;8.10;;;5.18;;
9264;SDS011;4669;49.594;10.958;2023-03-23T00:42:31;9.68;;;5.22;;
9264;SDS011;4669;49.594;10.958;2023-03-23T00:47:38;5.75;;;5.03;;
9264;SDS011;4669;49.594;10.958;2023-03-23T00:52:43;7.38;;;5.32;;
9264;SDS011;4669;49.594;10.958;2023-03-23T00:57:45;7.60;;;4.75;;
9264;SDS011;4669;49.594;10.958;2023-03-23T01:02:49;8.73;;;5.57;;
9264;SDS011;4669;49.594;10.958;2023-03-23T01:07:53;8.68;;;6.20;;
9264;SDS011;4669;49.594;10.958;2023-03-23T01:12:56;10.55;;;5.32;;
9264;SDS011;4669;49.594;10.958;2023-03-23T01:17:58;9.05;;;5.35;;
9264;SDS011;4669;49.594;10.958;2023-03-23T01:23:01;10.38;;;5.22;;
9264;SDS011;4669;49.594;10.958;2023-03-23T01:28:04;7.30;;;4.57;;
9264;SDS011;4669;49.594;10.958;2023-03-23T01:33:06;9.80;;;4.97;;
9264;SDS011;4669;49.594;10.958;2023-03-23T01:38:10;7.63;;;4.20;;
9264;SDS011;4669;49.594;10.958;2023-03-23T01:43:12;6.15;;;3.80;;
9264;SDS011;4669;49.594;10.958;2023-03-23T01:48:18;10.63;;;3.50;;
9264;SDS011;4669;49.594;10.958;2023-03-23T01:53:28;3.90;;;3.13;;
9264;SDS011;4669;49.594;10.958;2023-03-23T01:58:33;7.90;;;3.33;;
9264;SDS011;4669;49.594;10.958;2023-03-23T02:03:38;5.60;;;3.03;;
9264;SDS011;4669;49.594;10.958;2023-03-23T02:08:44;6.93;;;3.20;;
9264;SDS011;4669;49.594;10.958;2023-03-23T02:13:50;3.78;;;2.80;;
9264;SDS011;4669;49.594;10.958;2023-03-23T02:18:54;3.10;;;2.58;;
9264;SDS011;4669;49.594;10.958;2023-03-23T02:24:06;4.65;;;2.72;;
9264;SDS011;4669;49.594;10.958;2023-03-23T02:34:56;3.42;;;2.60;;
9264;SDS011;4669;49.594;10.958;2023-03-23T02:40:02;3.40;;;2.97;;
9264;SDS011;4669;49.594;10.958;2023-03-23T02:45:10;2.90;;;2.60;;
9264;SDS011;4669;49.594;10.958;2023-03-23T02:50:16;3.90;;;3.22;;
9264;SDS011;4669;49.594;10.958;2023-03-23T02:55:21;4.70;;;3.65;;
9264;SDS011;4669;49.594;10.958;2023-03-23T03:00:25;3.65;;;3.17;;
9264;SDS011;4669;49.594;10.958;2023-03-23T03:05:32;5.50;;;3.53;;
9264;SDS011;4669;49.594;10.958;2023-03-23T03:10:42;4.43;;;3.35;;
9264;SDS011;4669;49.594;10.958;2023-03-23T03:15:51;9.90;;;4.57;;
9264;SDS011;4669;49.594;10.958;2023-03-23T03:21:00;5.93;;;3.58;;
9264;SDS011;4669;49.594;10.958;2023-03-23T03:26:07;5.40;;;3.42;;
9264;SDS011;4669;49.594;10.958;2023-03-23T03:31:20;3.58;;;3.08;;
9264;SDS011;4669;49.594;10.958;2023-03-23T03:36:26;4.28;;;2.60;;
9264;SDS011;4669;49.594;10.958;2023-03-23T03:41:35;6.78;;;3.55;;
9264;SDS011;4669;49.594;10.958;2023-03-23T03:46:39;4.47;;;3.67;;
9264;SDS011;4669;49.594;10.958;2023-03-23T03:51:42;5.00;;;2.30;;
9264;SDS011;4669;49.594;10.958;2023-03-23T03:56:54;2.28;;;2.08;;
9264;SDS011;4669;49.594;10.958;2023-03-23T04:02:16;2.95;;;2.10;;
9264;SDS011;4669;49.594;10.958;2023-03-23T04:07:22;4.80;;;2.40;;
9264;SDS011;4669;49.594;10.958;2023-03-23T04:12:26;3.00;;;2.13;;
9264;SDS011;4669;49.594;10.958;2023-03-23T04:17:31;4.20;;;2.28;;
9264;SDS011;4669;49.594;10.958;2023-03-23T04:22:35;3.92;;;2.72;;
9264;SDS011;4669;49.594;10.958;2023-03-23T04:27:38;5.63;;;3.90;;
9264;SDS011;4669;49.594;10.958;2023-03-23T04:32:44;5.28;;;2.92;;
9264;SDS011;4669;49.594;10.958;2023-03-23T04:37:53;4.10;;;2.17;;
9264;SDS011;4669;49.594;10.958;2023-03-23T04:42:55;3.13;;;2.28;;
9264;SDS011;4669;49.594;10.958;2023-03-23T04:48:09;3.38;;;2.53;;
9264;SDS011;4669;49.594;10.958;2023-03-23T04:53:31;2.65;;;2.03;;
9264;SDS011;4669;49.594;10.958;2023-03-23T04:58:35;3.20;;;1.95;;
9264;SDS011;4669;49.594;10.958;2023-03-23T05:04:12;3.83;;;2.28;;
9264;SDS011;4669;49.594;10.958;2023-03-23T05:09:21;3.22;;;2.00;;
9264;SDS011;4669;49.594;10.958;2023-03-23T05:14:24;4.55;;;2.63;;
9264;SDS011;4669;49.594;10.958;2023-03-23T05:19:38;3.00;;;2.15;;
9264;SDS011;4669;49.594;10.958;2023-03-23T05:25:02;15.68;;;8.40;;
9264;SDS011;4669;49.594;10.958;2023-03-23T05:30:09;8.40;;;6.32;;
9264;SDS011;4669;49.594;10.958;2023-03-23T05:35:14;4.20;;;3.80;;
9264;SDS011;4669;49.594;10.958;2023-03-23T05:40:17;5.78;;;2.80;;
9264;SDS011;4669;49.594;10.958;2023-03-23T05:45:28;2.85;;;2.22;;
9264;SDS011;4669;49.594;10.958;2023-03-23T05:50:30;6.13;;;2.00;;
9264;SDS011;4669;49.594;10.958;2023-03-23T05:55:34;4.20;;;2.20;;
9264;SDS011;4669;49.594;10.958;2023-03-23T06:00:47;2.83;;;2.50;;
9264;SDS011;4669;49.594;10.958;2023-03-23T06:05:57;5.38;;;2.78;;
9264;SDS011;4669;49.594;10.958;2023-03-23T06:11:09;3.88;;;2.10;;
9264;SDS011;4669;49.594;10.958;2023-03-23T06:16:18;8.25;;;2.50;;
9264;SDS011;4669;49.594;10.958;2023-03-23T06:21:30;3.38;;;2.17;;
9264;SDS011;4669;49.594;10.958;2023-03-23T06:26:38;2.58;;;2.30;;
9264;SDS011;4669;49.594;10.958;2023-03-23T06:31:50;6.63;;;2.10;;
9264;SDS011;4669;49.594;10.958;2023-03-23T06:36:55;4.55;;;2.28;;
9264;SDS011;4669;49.594;10.958;2023-03-23T06:42:10;3.25;;;2.00;;
9264;SDS011;4669;49.594;10.958;2023-03-23T06:47:18;4.05;;;2.13;;
9264;SDS011;4669;49.594;10.958;2023-03-23T06:52:22;5.38;;;2.13;;
9264;SDS011;4669;49.594;10.958;2023-03-23T06:57:26;3.22;;;1.80;;
9264;SDS011;4669;49.594;10.958;2023-03-23T07:02:29;3.50;;;2.15;;
9264;SDS011;4669;49.594;10.958;2023-03-23T07:07:32;3.70;;;2.10;;
9264;SDS011;4669;49.594;10.958;2023-03-23T07:12:55;3.15;;;1.92;;
9264;SDS011;4669;49.594;10.958;2023-03-23T07:17:59;3.70;;;2.20;;
9264;SDS011;4669;49.594;10.958;2023-03-23T07:23:10;2.92;;;2.00;;
9264;SDS011;4669;49.594;10.958;2023-03-23T07:28:18;3.47;;;2.35;;
9264;SDS011;4669;49.594;10.958;2023-03-23T07:33:22;3.33;;;2.35;;
9264;SDS011;4669;49.594;10.958;2023-03-23T07:38:25;2.70;;;2.30;;
9264;SDS011;4669;49.594;10.958;2023-03-23T07:43:30;3.78;;;2.90;;
9264;SDS011;4669;49.594;10.958;2023-03-23T07:48:44;2.58;;;2.38;;
9264;SDS011;4669;49.594;10.958;2023-03-23T07:53:47;4.32;;;2.88;;
9264;SDS011;4669;49.594;10.958;2023-03-23T07:59:27;3.10;;;2.70;;
9264;SDS011;4669;49.594;10.958;2023-03-23T08:04:31;4.93;;;3.10;;
9264;SDS011;4669;49.594;10.958;2023-03-23T08:10:09;3.30;;;2.70;;
9264;SDS011;4669;49.594;10.958;2023-03-23T08:15:26;4.43;;;2.78;;
9264;SDS011;4669;49.594;10.958;2023-03-23T08:20:38;6.20;;;3.00;;
9264;SDS011;4669;49.594;10.958;2023-03-23T08:26:06;4.88;;;2.72;;
9264;SDS011;4669;49.594;10.958;2023-03-23T08:31:34;4.20;;;2.85;;
9264;SDS011;4669;49.594;10.958;2023-03-23T08:36:44;3.45;;;2.72;;
9264;SDS011;4669;49.594;10.958;2023-03-23T08:42:05;6.82;;;3.88;;
9264;SDS011;4669;49.594;10.958;2023-03-23T08:47:27;7.63;;;3.47;;
9264;SDS011;4669;49.594;10.958;2023-03-23T08:53:04;6.75;;;3.60;;
9264;SDS011;4669;49.594;10.958;2023-03-23T08:58:22;7.80;;;4.15;;
9264;SDS011;4669;49.594;10.958;2023-03-23T09:03:44;4.72;;;4.18;;
9264;SDS011;4669;49.594;10.958;2023-03-23T09:09:06;6.65;;;3.22;;
9264;SDS011;4669;49.594;10.958;2023-03-23T09:14:10;6.35;;;3.20;;
9264;SDS011;4669;49.594;10.958;2023-03-23T09:19:14;5.35;;;2.72;;
9264;SDS011;4669;49.594;10.958;2023-03-23T09:24:16;6.32;;;2.90;;
9264;SDS011;4669;49.594;10.958;2023-03-23T09:29:19;5.18;;;2.97;;
9264;SDS011;4669;49.594;10.958;2023-03-23T09:34:22;3.65;;;2.75;;
9264;SDS011;4669;49.594;10.958;2023-03-23T09:39:24;4.22;;;2.75;;
9264;SDS011;4669;49.594;10.958;2023-03-23T09:44:30;5.13;;;2.50;;
9264;SDS011;4669;49.594;10.958;2023-03-23T09:49:39;3.53;;;2.42;;
9264;SDS011;4669;49.594;10.958;2023-03-23T09:54:45;5.97;;;3.03;;
9264;SDS011;4669;49.594;10.958;2023-03-23T09:59:53;3.42;;;2.60;;
9264;SDS011;4669;49.594;10.958;2023-03-23T10:05:02;5.22;;;2.55;;
9264;SDS011;4669;49.594;10.958;2023-03-23T10:10:26;4.57;;;2.45;;
9264;SDS011;4669;49.594;10.958;2023-03-23T10:15:35;4.97;;;2.53;;
9264;SDS011;4669;49.594;10.958;2023-03-23T10:20:45;3.53;;;2.63;;
9264;SDS011;4669;49.594;10.958;2023-03-23T10:25:51;4.47;;;2.50;;
9264;SDS011;4669;49.594;10.958;2023-03-23T10:30:56;6.72;;;2.40;;
9264;SDS011;4669;49.594;10.958;2023-03-23T10:36:03;2.95;;;2.42;;
9264;SDS011;4669;49.594;10.958;2023-03-23T10:41:13;4.05;;;1.90;;
9264;SDS011;4669;49.594;10.958;2023-03-23T10:46:21;3.20;;;1.95;;
9264;SDS011;4669;49.594;10.958;2023-03-23T10:51:32;3.95;;;2.40;;
9264;SDS011;4669;49.594;10.958;2023-03-23T10:56:37;1.98;;;1.50;;
9264;SDS011;4669;49.594;10.958;2023-03-23T11:01:41;1.90;;;1.48;;
9264;SDS011;4669;49.594;10.958;2023-03-23T11:06:48;2.15;;;1.40;;
9264;SDS011;4669;49.594;10.958;2023-03-23T11:11:54;1.65;;;1.33;;
9264;SDS011;4669;49.594;10.958;2023-03-23T11:16:57;3.90;;;1.73;;
9264;SDS011;4669;49.594;10.958;2023-03-23T11:22:06;2.75;;;1.50;;
9264;SDS011;4669;49.594;10.958;2023-03-23T11:27:15;2.03;;;1.88;;
9264;SDS011;4669;49.594;10.958;2023-03-23T11:32:17;2.67;;;1.65;;
9264;SDS011;4669;49.594;10.958;2023-03-23T11:37:23;2.13;;;1.48;;
9264;SDS011;4669;49.594;10.958;2023-03-23T11:42:34;2.28;;;1.40;;
9264;SDS011;4669;49.594;10.958;2023-03-23T11:47:39;2.95;;;1.38;;
9264;SDS011;4669;49.594;10.958;2023-03-23T11:52:47;1.73;;;1.48;;
9264;SDS011;4669;49.594;10.958;2023-03-23T11:57:54;1.63;;;1.38;;
9264;SDS011;4669;49.594;10.958;2023-03-23T12:03:05;2.72;;;1.90;;
9264;SDS011;4669;49.594;10.958;2023-03-23T12:08:24;1.65;;;1.55;;
9264;SDS011;4669;49.594;10.958;2023-03-23T12:13:40;1.60;;;1.50;;
9264;SDS011;4669;49.594;10.958;2023-03-23T12:18:55;1.88;;;1.52;;
9264;SDS011;4669;49.594;10.958;2023-03-23T12:24:06;2.80;;;1.83;;
9264;SDS011;4669;49.594;10.958;2023-03-23T12:29:24;2.28;;;1.67;;
9264;SDS011;4669;49.594;10.958;2023-03-23T12:34:44;2.00;;;1.60;;
9264;SDS011;4669;49.594;10.958;2023-03-23T12:40:00;1.80;;;1.70;;
9264;SDS011;4669;49.594;10.958;2023-03-23T12:45:15;1.80;;;1.65;;
9264;SDS011;4669;49.594;10.958;2023-03-23T12:50:24;1.35;;;1.25;;
9264;SDS011;4669;49.594;10.958;2023-03-23T12:55:34;3.75;;;1.70;;
9264;SDS011;4669;49.594;10.958;2023-03-23T13:00:50;5.95;;;1.50;;
9264;SDS011;4669;49.594;10.958;2023-03-23T13:05:58;1.38;;;1.27;;
9264;SDS011;4669;49.594;10.958;2023-03-23T13:11:10;3.97;;;1.48;;
9264;SDS011;4669;49.594;10.958;2023-03-23T13:16:20;2.42;;;1.48;;
9264;SDS011;4669;49.594;10.958;2023-03-23T13:21:29;3.08;;;1.30;;
9264;SDS011;4669;49.594;10.958;2023-03-23T13:26:37;2.38;;;1.17;;
9264;SDS011;4669;49.594;10.958;2023-03-23T13:31:42;3.08;;;1.45;;
9264;SDS011;4669;49.594;10.958;2023-03-23T13:36:51;1.30;;;1.20;;
9264;SDS011;4669;49.594;10.958;2023-03-23T13:42:01;2.67;;;1.20;;
9264;SDS011;4669;49.594;10.958;2023-03-23T13:47:07;2.40;;;1.58;;
9264;SDS011;4669;49.594;10.958;2023-03-23T13:52:17;1.63;;;1.45;;
9264;SDS011;4669;49.594;10.958;2023-03-23T13:57:34;2.05;;;1.80;;
9264;SDS011;4669;49.594;10.958;2023-03-23T14:02:39;5.75;;;1.63;;
9264;SDS011;4669;49.594;10.958;2023-03-23T14:07:55;6.85;;;2.10;;
9264;SDS011;4669;49.594;10.958;2023-03-23T14:13:02;3.28;;;1.75;;
9264;SDS011;4669;49.594;10.958;2023-03-23T14:18:06;4.10;;;1.80;;
9264;SDS011;4669;49.594;10.958;2023-03-23T14:23:13;1.90;;;1.55;;
9264;SDS011;4669;49.594;10.958;2023-03-23T14:28:19;6.78;;;2.00;;
9264;SDS011;4669;49.594;10.958;2023-03-23T14:33:22;2.33;;;1.60;;
9264;SDS011;4669;49.594;10.958;2023-03-23T14:38:26;1.63;;;1.40;;
9264;SDS011;4669;49.594;10.958;2023-03-23T14:43:33;3.30;;;1.40;;
9264;SDS011;4669;49.594;10.958;2023-03-23T14:48:37;1.98;;;1.50;;
9264;SDS011;4669;49.594;10.958;2023-03-23T14:53:40;2.58;;;1.52;;
9264;SDS011;4669;49.594;10.958;2023-03-23T14:58:45;3.10;;;1.75;;
9264;SDS011;4669;49.594;10.958;2023-03-23T15:03:50;1.88;;;1.67;;
9264;SDS011;4669;49.594;10.958;2023-03-23T15:08:54;1.73;;;1.63;;
9264;SDS011;4669;49.594;10.958;2023-03-23T15:14:02;5.75;;;2.20;;
9264;SDS011;4669;49.594;10.958;2023-03-23T15:19:11;2.33;;;1.98;;
9264;SDS011;4669;49.594;10.958;2023-03-23T15:24:19;2.35;;;1.80;;
9264;SDS011;4669;49.594;10.958;2023-03-23T15:29:28;2.42;;;1.58;;
9264;SDS011;4669;49.594;10.958;2023-03-23T15:34:31;2.30;;;1.70;;
9264;SDS011;4669;49.594;10.958;2023-03-23T15:39:40;2.30;;;2.00;;
9264;SDS011;4669;49.594;10.958;2023-03-23T15:44:44;2.97;;;1.73;;
9264;SDS011;4669;49.594;10.958;2023-03-23T15:50:02;1.80;;;1.67;;
9264;SDS011;4669;49.594;10.958;2023-03-23T15:55:18;4.55;;;1.60;;
9264;SDS011;4669;49.594;10.958;2023-03-23T16:00:25;3.03;;;2.10;;
9264;SDS011;4669;49.594;10.958;2023-03-23T16:05:28;5.07;;;1.92;;
9264;SDS011;4669;49.594;10.958;2023-03-23T16:10:30;2.50;;;2.05;;
9264;SDS011;4669;49.594;10.958;2023-03-23T16:15:33;2.78;;;2.00;;
9264;SDS011;4669;49.594;10.958;2023-03-23T16:20:35;2.42;;;1.80;;
9264;SDS011;4669;49.594;10.958;2023-03-23T16:25:37;2.75;;;1.75;;
9264;SDS011;4669;49.594;10.958;2023-03-23T16:30:41;2.40;;;2.20;;
9264;SDS011;4669;49.594;10.958;2023-03-23T16:35:44;2.30;;;2.10;;
9264;SDS011;4669;49.594;10.958;2023-03-23T16:40:46;3.60;;;1.73;;
9264;SDS011;4669;49.594;10.958;2023-03-23T16:45:51;4.68;;;2.13;;
9264;SDS011;4669;49.594;10.958;2023-03-23T16:50:56;6.70;;;2.55;;
9264;SDS011;4669;49.594;10.958;2023-03-23T16:55:58;4.10;;;2.70;;
9264;SDS011;4669;49.594;10.958;2023-03-23T17:01:01;5.30;;;3.85;;
9264;SDS011;4669;49.594;10.958;2023-03-23T17:06:05;2.50;;;2.30;;
9264;SDS011;4669;49.594;10.958;2023-03-23T17:11:07;4.72;;;3.05;;
9264;SDS011;4669;49.594;10.958;2023-03-23T17:16:12;3.05;;;2.63;;
9264;SDS011;4669;49.594;10.958;2023-03-23T17:21:14;4.28;;;2.53;;
9264;SDS011;4669;49.594;10.958;2023-03-23T17:26:16;3.30;;;2.40;;
9264;SDS011;4669;49.594;10.958;2023-03-23T17:31:19;4.50;;;2.88;;
9264;SDS011;4669;49.594;10.958;2023-03-23T17:36:21;4.38;;;3.47;;
9264;SDS011;4669;49.594;10.958;2023-03-23T17:41:24;4.18;;;3.78;;
9264;SDS011;4669;49.594;10.958;2023-03-23T17:46:27;4.93;;;3.08;;
9264;SDS011;4669;49.594;10.958;2023-03-23T17:51:29;4.28;;;3.88;;
9264;SDS011;4669;49.594;10.958;2023-03-23T17:56:31;7.95;;;4.32;;
9264;SDS011;4669;49.594;10.958;2023-03-23T18:01:35;6.25;;;4.00;;
9264;SDS011;4669;49.594;10.958;2023-03-23T18:06:37;5.75;;;4.30;;
9264;SDS011;4669;49.594;10.958;2023-03-23T18:11:39;5.70;;;4.70;;
9264;SDS011;4669;49.594;10.958;2023-03-23T18:16:42;6.97;;;4.30;;
9264;SDS011;4669;49.594;10.958;2023-03-23T18:21:45;14.80;;;10.70;;
9264;SDS011;4669;49.594;10.958;2023-03-23T18:26:47;5.68;;;4.97;;
9264;SDS011;4669;49.594;10.958;2023-03-23T18:31:50;9.02;;;6.65;;
9264;SDS011;4669;49.594;10.958;2023-03-23T18:36:52;7.68;;;5.75;;
9264;SDS011;4669;49.594;10.958;2023-03-23T18:41:55;11.30;;;5.03;;
9264;SDS011;4669;49.594;10.958;2023-03-23T18:46:58;7.82;;;6.10;;
9264;SDS011;4669;49.594;10.958;2023-03-23T18:52:00;6.20;;;5.57;;
9264;SDS011;4669;49.594;10.958;2023-03-23T18:57:02;7.88;;;5.25;;
9264;SDS011;4669;49.594;10.958;2023-03-23T19:02:05;6.00;;;4.13;;
9264;SDS011;4669;49.594;10.958;2023-03-23T19:07:08;5.20;;;4.00;;
9264;SDS011;4669;49.594;10.958;2023-03-23T19:12:12;8.63;;;4.88;;
9264;SDS011;4669;49.594;10.958;2023-03-23T19:17:16;8.38;;;5.40;;
9264;SDS011;4669;49.594;10.958;2023-03-23T19:22:18;6.22;;;5.22;;
9264;SDS011;4669;49.594;10.958;2023-03-23T19:27:20;5.95;;;5.32;;
9264;SDS011;4669;49.594;10.958;2023-03-23T19:32:23;9.13;;;6.40;;
9264;SDS011;4669;49.594;10.958;2023-03-23T19:37:25;13.30;;;7.15;;
9264;SDS011;4669;49.594;10.958;2023-03-23T19:42:27;14.18;;;8.63;;
9264;SDS011;4669;49.594;10.958;2023-03-23T19:47:31;16.25;;;8.57;;
9264;SDS011;4669;49.594;10.958;2023-03-23T19:52:33;15.45;;;8.80;;
9264;SDS011;4669;49.594;10.958;2023-03-23T19:57:35;11.88;;;10.23;;
9264;SDS011;4669;49.594;10.958;2023-03-23T20:02:39;11.88;;;9.95;;
9264;SDS011;4669;49.594;10.958;2023-03-23T20:07:41;17.98;;;13.43;;
9264;SDS011;4669;49.594;10.958;2023-03-23T20:12:44;22.70;;;16.25;;
9264;SDS011;4669;49.594;10.958;2023-03-23T20:17:47;22.58;;;16.80;;
9264;SDS011;4669;49.594;10.958;2023-03-23T20:22:49;20.35;;;14.95;;
9264;SDS011;4669;49.594;10.958;2023-03-23T20:27:51;19.83;;;14.48;;
9264;SDS011;4669;49.594;10.958;2023-03-23T20:32:55;16.77;;;12.95;;
9264;SDS011;4669;49.594;10.958;2023-03-23T20:37:59;19.35;;;11.07;;
9264;SDS011;4669;49.594;10.958;2023-03-23T20:43:01;15.20;;;10.93;;
9264;SDS011;4669;49.594;10.958;2023-03-23T20:48:05;23.70;;;15.70;;
9264;SDS011;4669;49.594;10.958;2023-03-23T20:53:08;22.30;;;16.75;;
9264;SDS011;4669;49.594;10.958;2023-03-23T20:58:10;19.13;;;14.20;;
9264;SDS011;4669;49.594;10.958;2023-03-23T21:03:15;19.95;;;13.30;;
9264;SDS011;4669;49.594;10.958;2023-03-23T21:08:18;15.88;;;12.40;;
9264;SDS011;4669;49.594;10.958;2023-03-23T21:13:20;17.02;;;11.93;;
9264;SDS011;4669;49.594;10.958;2023-03-23T21:18:23;14.77;;;10.95;;
9264;SDS011;4669;49.594;10.958;2023-03-23T21:23:26;10.75;;;9.15;;
9264;SDS011;4669;49.594;10.958;2023-03-23T21:28:28;12.90;;;10.25;;
9264;SDS011;4669;49.594;10.958;2023-03-23T21:33:32;36.60;;;22.90;;
9264;SDS011;4669;49.594;10.958;2023-03-23T21:38:34;100.43;;;54.05;;
9264;SDS011;4669;49.594;10.958;2023-03-23T21:43:38;129.93;;;56.30;;
9264;SDS011;4669;49.594;10.958;2023-03-23T21:48:47;58.78;;;23.98;;
9264;SDS011;4669;49.594;10.958;2023-03-23T21:53:50;40.80;;;17.30;;
9264;SDS011;4669;49.594;10.958;2023-03-23T21:58:56;24.80;;;13.45;;
9264;SDS011;4669;49.594;10.958;2023-03-23T22:04:01;14.85;;;10.80;;
9264;SDS011;4669;49.594;10.958;2023-03-23T22:09:04;9.40;;;6.15;;
9264;SDS011;4669;49.594;10.958;2023-03-23T22:14:06;7.47;;;4.55;;
9264;SDS011;4669;49.594;10.958;2023-03-23T22:19:10;8.23;;;4.47;;
9264;SDS011;4669;49.594;10.958;2023-03-23T22:24:12;7.18;;;4.10;;
9264;SDS011;4669;49.594;10.958;2023-03-23T22:29:14;7.38;;;4.00;;
9264;SDS011;4669;49.594;10.958;2023-03-23T22:34:18;4.97;;;4.13;;
9264;SDS011;4669;49.594;10.958;2023-03-23T22:39:20;4.57;;;3.78;;
9264;SDS011;4669;49.594;10.958;2023-03-23T22:44:23;5.82;;;4.13;;
9264;SDS011;4669;49.594;10.958;2023-03-23T22:49:26;4.75;;;4.18;;
9264;SDS011;4669;49.594;10.958;2023-03-23T22:54:28;7.72;;;4.45;;
9264;SDS011;4669;49.594;10.958;2023-03-23T22:59:30;5.45;;;4.55;;
